Time,TemperatureF,DewpointF,PressureIn,WindDirection,WindDirectionDegrees,WindSpeedMPH,WindSpeedGustMPH,Humidity,HourlyPrecipIn,Conditions,Clouds,dailyrainin,SolarRadiationWatts/m^2,SoftwareType,DateUTC
2013-02-28 00:01:00,25.0,5.0,-100.00,North,11,5.0,15.0,41,0.00,,,0.00,0.000000,,2013-02-28 07:01:00,
2013-02-28 00:11:00,25.0,5.0,-100.00,North,11,5.0,15.0,41,0.00,,,0.00,0.000000,,2013-02-28 07:11:00,
2013-02-28 00:21:00,25.0,5.0,-100.00,North,11,5.0,15.0,41,0.00,,,0.00,0.000000,,2013-02-28 07:21:00,
2013-02-28 00:31:00,25.0,5.0,-100.00,North,11,5.0,15.0,41,0.00,,,0.00,0.000000,,2013-02-28 07:31:00,
2013-02-28 00:41:00,25.0,5.0,-100.00,North,11,5.0,15.0,41,0.00,,,0.00,0.000000,,2013-02-28 07:41:00,
2013-02-28 01:01:00,21.0,5.0,-100.00,North,8,1.0,8.0,49,0.00,,,0.00,0.000000,,2013-02-28 08:01:00,
2013-02-28 01:11:00,21.0,5.0,-100.00,North,8,1.0,8.0,49,0.00,,,0.00,0.000000,,2013-02-28 08:11:00,
2013-02-28 01:21:00,21.0,5.0,-100.00,North,8,1.0,8.0,49,0.00,,,0.00,0.000000,,2013-02-28 08:21:00,
2013-02-28 01:32:00,21.0,5.0,-100.00,North,8,1.0,8.0,49,0.00,,,0.00,0.000000,,2013-02-28 08:32:00,
2013-02-28 01:41:00,21.0,5.0,-100.00,North,8,1.0,8.0,49,0.00,,,0.00,0.000000,,2013-02-28 08:41:00,
2013-02-28 02:03:00,21.0,5.0,-100.00,NNW,331,6.0,11.0,49,0.00,,,0.00,0.000000,,2013-02-28 09:03:00,
2013-02-28 02:11:00,21.0,5.0,-100.00,NNW,331,6.0,11.0,49,0.00,,,0.00,0.000000,,2013-02-28 09:11:00,
2013-02-28 02:21:00,21.0,5.0,-100.00,NNW,331,6.0,11.0,49,0.00,,,0.00,0.000000,,2013-02-28 09:21:00,
2013-02-28 02:31:00,21.0,5.0,-100.00,NNW,331,6.0,11.0,49,0.00,,,0.00,0.000000,,2013-02-28 09:31:00,
2013-02-28 02:41:00,21.0,5.0,-100.00,NNW,331,6.0,11.0,49,0.00,,,0.00,0.000000,,2013-02-28 09:41:00,
2013-02-28 03:01:00,23.0,4.0,-100.00,South,185,11.0,18.0,43,0.00,,,0.00,0.000000,,2013-02-28 10:01:00,
2013-02-28 03:11:00,23.0,4.0,-100.00,South,185,11.0,18.0,43,0.00,,,0.00,0.000000,,2013-02-28 10:11:00,
2013-02-28 03:21:00,23.0,4.0,-100.00,South,185,11.0,18.0,43,0.00,,,0.00,0.000000,,2013-02-28 10:21:00,
2013-02-28 03:31:00,23.0,4.0,-100.00,South,185,11.0,18.0,43,0.00,,,0.00,0.000000,,2013-02-28 10:31:00,
2013-02-28 03:41:00,23.0,4.0,-100.00,South,185,11.0,18.0,43,0.00,,,0.00,0.000000,,2013-02-28 10:41:00,
2013-02-28 04:01:00,23.0,4.0,-100.00,West,275,6.0,16.0,43,0.00,,,0.00,0.000000,,2013-02-28 11:01:00,
2013-02-28 04:11:00,23.0,4.0,-100.00,West,275,6.0,16.0,43,0.00,,,0.00,0.000000,,2013-02-28 11:11:00,
2013-02-28 04:21:00,23.0,4.0,-100.00,West,275,6.0,16.0,43,0.00,,,0.00,0.000000,,2013-02-28 11:21:00,
2013-02-28 04:32:00,23.0,4.0,-100.00,West,275,6.0,16.0,43,0.00,,,0.00,0.000000,,2013-02-28 11:32:00,
2013-02-28 04:41:00,23.0,4.0,-100.00,West,275,6.0,16.0,43,0.00,,,0.00,0.000000,,2013-02-28 11:41:00,
2013-02-28 05:01:00,22.0,2.0,-100.00,NNE,13,4.0,10.0,42,0.00,,,0.00,0.000000,,2013-02-28 12:01:00,
2013-02-28 05:11:00,22.0,2.0,-100.00,NNE,13,4.0,10.0,42,0.00,,,0.00,0.000000,,2013-02-28 12:11:00,
2013-02-28 05:21:00,22.0,2.0,-100.00,NNE,13,4.0,10.0,42,0.00,,,0.00,0.000000,,2013-02-28 12:21:00,
2013-02-28 05:32:00,22.0,2.0,-100.00,NNE,13,4.0,10.0,42,0.00,,,0.00,0.000000,,2013-02-28 12:32:00,
2013-02-28 05:42:00,22.0,2.0,-100.00,NNE,13,4.0,10.0,42,0.00,,,0.00,0.000000,,2013-02-28 12:42:00,
2013-02-28 06:01:00,21.0,2.0,-100.00,East,93,4.0,8.0,43,0.00,,,0.00,0.000000,,2013-02-28 13:01:00,
2013-02-28 06:11:00,21.0,2.0,-100.00,East,93,4.0,8.0,43,0.00,,,0.00,0.000000,,2013-02-28 13:11:00,
2013-02-28 06:21:00,21.0,2.0,-100.00,East,93,4.0,8.0,43,0.00,,,0.00,0.000000,,2013-02-28 13:21:00,
2013-02-28 06:32:00,21.0,2.0,-100.00,East,93,4.0,8.0,43,0.00,,,0.00,0.000000,,2013-02-28 13:32:00,
2013-02-28 06:41:00,21.0,2.0,-100.00,East,93,4.0,8.0,43,0.00,,,0.00,0.000000,,2013-02-28 13:41:00,
2013-02-28 07:01:00,20.0,3.0,-100.00,WSW,254,6.0,9.0,46,0.00,,,0.00,0.000000,,2013-02-28 14:01:00,
2013-02-28 07:11:00,20.0,3.0,-100.00,WSW,254,6.0,9.0,46,0.00,,,0.00,0.000000,,2013-02-28 14:11:00,
2013-02-28 07:21:00,20.0,3.0,-100.00,WSW,254,6.0,9.0,46,0.00,,,0.00,0.000000,,2013-02-28 14:21:00,
2013-02-28 07:31:00,20.0,3.0,-100.00,WSW,254,6.0,9.0,46,0.00,,,0.00,0.000000,,2013-02-28 14:31:00,
2013-02-28 07:42:00,20.0,3.0,-100.00,WSW,254,6.0,9.0,46,0.00,,,0.00,0.000000,,2013-02-28 14:42:00,
2013-02-28 08:02:00,25.0,4.0,-100.00,North,3,2.0,9.0,40,0.00,,,0.00,24.000000,,2013-02-28 15:02:00,
2013-02-28 08:21:00,25.0,4.0,-100.00,North,3,2.0,9.0,40,0.00,,,0.00,24.000000,,2013-02-28 15:21:00,
2013-02-28 08:32:00,25.0,4.0,-100.00,North,3,2.0,9.0,40,0.00,,,0.00,24.000000,,2013-02-28 15:32:00,
2013-02-28 08:41:00,25.0,4.0,-100.00,North,3,2.0,9.0,40,0.00,,,0.00,24.000000,,2013-02-28 15:41:00,
2013-02-28 09:01:00,33.0,6.0,-100.00,SSE,165,2.0,8.0,32,0.00,,,0.00,237.000000,,2013-02-28 16:01:00,
2013-02-28 10:01:00,35.0,1.0,-100.00,East,97,5.0,9.0,23,0.00,,,0.00,487.000000,,2013-02-28 17:01:00,
2013-02-28 10:21:00,35.0,1.0,-100.00,East,97,5.0,9.0,23,0.00,,,0.00,487.000000,,2013-02-28 17:21:00,
2013-02-28 10:32:00,35.0,1.0,-100.00,East,97,5.0,9.0,23,0.00,,,0.00,487.000000,,2013-02-28 17:32:00,
2013-02-28 10:41:00,35.0,1.0,-100.00,East,97,5.0,9.0,23,0.00,,,0.00,487.000000,,2013-02-28 17:41:00,
2013-02-28 11:02:00,39.0,4.0,-100.00,North,351,7.0,15.0,23,0.00,,,0.00,733.000000,,2013-02-28 18:02:00,
2013-02-28 11:31:00,39.0,4.0,-100.00,North,351,7.0,15.0,23,0.00,,,0.00,733.000000,,2013-02-28 18:31:00,
2013-02-28 11:41:00,39.0,4.0,-100.00,North,351,7.0,15.0,23,0.00,,,0.00,733.000000,,2013-02-28 18:41:00,
2013-02-28 12:01:00,39.0,5.0,-100.00,East,94,10.0,17.0,24,0.00,,,0.00,899.000000,,2013-02-28 19:01:00,
2013-02-28 12:11:00,39.0,5.0,-100.00,East,94,10.0,17.0,24,0.00,,,0.00,899.000000,,2013-02-28 19:11:00,
2013-02-28 12:21:00,39.0,5.0,-100.00,East,94,10.0,17.0,24,0.00,,,0.00,899.000000,,2013-02-28 19:21:00,
2013-02-28 12:31:00,39.0,5.0,-100.00,East,94,10.0,17.0,24,0.00,,,0.00,899.000000,,2013-02-28 19:31:00,
2013-02-28 12:41:00,39.0,5.0,-100.00,East,94,10.0,17.0,24,0.00,,,0.00,899.000000,,2013-02-28 19:41:00,
2013-02-28 13:01:00,42.0,5.0,-100.00,SE,137,12.0,20.0,21,0.00,,,0.00,1018.000000,,2013-02-28 20:01:00,
2013-02-28 13:12:00,42.0,5.0,-100.00,SE,137,12.0,20.0,21,0.00,,,0.00,1018.000000,,2013-02-28 20:12:00,
2013-02-28 13:21:00,42.0,5.0,-100.00,SE,137,12.0,20.0,21,0.00,,,0.00,1018.000000,,2013-02-28 20:21:00,
2013-02-28 13:31:00,42.0,5.0,-100.00,SE,137,12.0,20.0,21,0.00,,,0.00,1018.000000,,2013-02-28 20:31:00,
2013-02-28 13:41:00,42.0,5.0,-100.00,SE,137,12.0,20.0,21,0.00,,,0.00,1018.000000,,2013-02-28 20:41:00,
2013-02-28 14:01:00,42.0,3.0,-100.00,West,259,14.0,23.0,19,0.00,,,0.00,1033.000000,,2013-02-28 21:01:00,
2013-02-28 14:11:00,42.0,3.0,-100.00,West,259,14.0,23.0,19,0.00,,,0.00,1033.000000,,2013-02-28 21:11:00,
2013-02-28 14:22:00,42.0,3.0,-100.00,West,259,14.0,23.0,19,0.00,,,0.00,1033.000000,,2013-02-28 21:22:00,
2013-02-28 14:31:00,42.0,3.0,-100.00,West,259,14.0,23.0,19,0.00,,,0.00,1033.000000,,2013-02-28 21:31:00,
2013-02-28 14:41:00,42.0,3.0,-100.00,West,259,14.0,23.0,19,0.00,,,0.00,1033.000000,,2013-02-28 21:41:00,
2013-02-28 15:01:00,43.0,6.0,-100.00,SE,143,11.0,22.0,21,0.00,,,0.00,954.000000,,2013-02-28 22:01:00,
2013-02-28 15:11:00,43.0,6.0,-100.00,SE,143,11.0,22.0,21,0.00,,,0.00,954.000000,,2013-02-28 22:11:00,
2013-02-28 15:21:00,43.0,6.0,-100.00,SE,143,11.0,22.0,21,0.00,,,0.00,954.000000,,2013-02-28 22:21:00,
2013-02-28 15:31:00,43.0,6.0,-100.00,SE,143,11.0,22.0,21,0.00,,,0.00,954.000000,,2013-02-28 22:31:00,
2013-02-28 15:41:00,43.0,6.0,-100.00,SE,143,11.0,22.0,21,0.00,,,0.00,954.000000,,2013-02-28 22:41:00,
2013-02-28 16:01:00,43.0,8.0,-100.00,NE,46,12.0,23.0,23,0.00,,,0.00,805.000000,,2013-02-28 23:01:00,
2013-02-28 16:11:00,43.0,8.0,-100.00,NE,46,12.0,23.0,23,0.00,,,0.00,805.000000,,2013-02-28 23:11:00,
2013-02-28 16:21:00,43.0,8.0,-100.00,NE,46,12.0,23.0,23,0.00,,,0.00,805.000000,,2013-02-28 23:21:00,
2013-02-28 16:31:00,43.0,8.0,-100.00,NE,46,12.0,23.0,23,0.00,,,0.00,805.000000,,2013-02-28 23:31:00,
2013-02-28 16:41:00,43.0,8.0,-100.00,NE,46,12.0,23.0,23,0.00,,,0.00,805.000000,,2013-02-28 23:41:00,
2013-02-28 17:01:00,42.0,8.0,-100.00,SE,124,12.0,24.0,24,0.00,,,0.00,593.000000,,2013-03-01 00:01:00,
2013-02-28 17:11:00,42.0,8.0,-100.00,SE,124,12.0,24.0,24,0.00,,,0.00,593.000000,,2013-03-01 00:11:00,
2013-02-28 17:22:00,42.0,8.0,-100.00,SE,124,12.0,24.0,24,0.00,,,0.00,593.000000,,2013-03-01 00:22:00,
2013-02-28 17:32:00,42.0,8.0,-100.00,SE,124,12.0,24.0,24,0.00,,,0.00,593.000000,,2013-03-01 00:32:00,
2013-02-28 17:41:00,42.0,8.0,-100.00,SE,124,12.0,24.0,24,0.00,,,0.00,593.000000,,2013-03-01 00:41:00,
2013-02-28 18:01:00,37.0,4.0,-100.00,SSE,164,12.0,22.0,25,0.00,,,0.00,331.000000,,2013-03-01 01:01:00,
2013-02-28 18:11:00,37.0,4.0,-100.00,SSE,164,12.0,22.0,25,0.00,,,0.00,331.000000,,2013-03-01 01:11:00,
2013-02-28 18:21:00,37.0,4.0,-100.00,SSE,164,12.0,22.0,25,0.00,,,0.00,331.000000,,2013-03-01 01:21:00,
2013-02-28 18:31:00,37.0,4.0,-100.00,SSE,164,12.0,22.0,25,0.00,,,0.00,331.000000,,2013-03-01 01:31:00,
2013-02-28 18:42:00,37.0,4.0,-100.00,SSE,164,12.0,22.0,25,0.00,,,0.00,331.000000,,2013-03-01 01:42:00,
2013-02-28 19:01:00,33.0,6.0,-100.00,SE,137,8.0,20.0,31,0.00,,,0.00,50.000000,,2013-03-01 02:01:00,
2013-02-28 19:11:00,33.0,6.0,-100.00,SE,137,8.0,20.0,31,0.00,,,0.00,50.000000,,2013-03-01 02:11:00,
2013-02-28 19:21:00,33.0,6.0,-100.00,SE,137,8.0,20.0,31,0.00,,,0.00,50.000000,,2013-03-01 02:21:00,
2013-02-28 19:31:00,33.0,6.0,-100.00,SE,137,8.0,20.0,31,0.00,,,0.00,50.000000,,2013-03-01 02:31:00,
2013-02-28 19:42:00,33.0,6.0,-100.00,SE,137,8.0,20.0,31,0.00,,,0.00,50.000000,,2013-03-01 02:42:00,
2013-02-28 20:01:00,33.0,8.0,-100.00,North,9,7.0,15.0,34,0.00,,,0.00,0.000000,,2013-03-01 03:01:00,
2013-02-28 20:11:00,33.0,8.0,-100.00,North,9,7.0,15.0,34,0.00,,,0.00,0.000000,,2013-03-01 03:11:00,
2013-02-28 20:21:00,33.0,8.0,-100.00,North,9,7.0,15.0,34,0.00,,,0.00,0.000000,,2013-03-01 03:21:00,
2013-02-28 20:32:00,33.0,8.0,-100.00,North,9,7.0,15.0,34,0.00,,,0.00,0.000000,,2013-03-01 03:32:00,
2013-02-28 20:41:00,33.0,8.0,-100.00,North,9,7.0,15.0,34,0.00,,,0.00,0.000000,,2013-03-01 03:41:00,
2013-02-28 21:11:00,31.0,8.0,-100.00,SSE,159,5.0,13.0,38,0.00,,,0.00,0.000000,,2013-03-01 04:11:00,
2013-02-28 21:21:00,31.0,8.0,-100.00,SSE,159,5.0,13.0,38,0.00,,,0.00,0.000000,,2013-03-01 04:21:00,
2013-02-28 21:31:00,31.0,8.0,-100.00,SSE,159,5.0,13.0,38,0.00,,,0.00,0.000000,,2013-03-01 04:31:00,
2013-02-28 21:41:00,31.0,8.0,-100.00,SSE,159,5.0,13.0,38,0.00,,,0.00,0.000000,,2013-03-01 04:41:00,
2013-02-28 22:11:00,31.0,8.0,-100.00,NE,38,4.0,9.0,38,0.00,,,0.00,0.000000,,2013-03-01 05:11:00,
2013-02-28 22:22:00,31.0,8.0,-100.00,NE,38,4.0,9.0,38,0.00,,,0.00,0.000000,,2013-03-01 05:22:00,
2013-02-28 22:32:00,31.0,8.0,-100.00,NE,38,4.0,9.0,38,0.00,,,0.00,0.000000,,2013-03-01 05:32:00,
2013-02-28 22:41:00,31.0,8.0,-100.00,NE,38,4.0,9.0,38,0.00,,,0.00,0.000000,,2013-03-01 05:41:00,
2013-02-28 23:02:00,30.0,7.0,-100.00,NE,41,4.0,8.0,37,0.00,,,0.00,0.000000,,2013-03-01 06:02:00,
2013-02-28 23:11:00,30.0,7.0,-100.00,NE,41,4.0,8.0,37,0.00,,,0.00,0.000000,,2013-03-01 06:11:00,
2013-02-28 23:21:00,30.0,7.0,-100.00,NE,41,4.0,8.0,37,0.00,,,0.00,0.000000,,2013-03-01 06:21:00,
2013-02-28 23:31:00,30.0,7.0,-100.00,NE,41,4.0,8.0,37,0.00,,,0.00,0.000000,,2013-03-01 06:31:00,
2013-02-28 23:41:00,30.0,7.0,-100.00,NE,41,4.0,8.0,37,0.00,,,0.00,0.000000,,2013-03-01 06:41:00,